Vistas de Luquillo, Puerto Rico
Current Conditions -  °F | °C
As of 5:53 AM on Sunday 23 Nov 2014 (Local Time) from TJNR Reporting Station
Clear Clear  
Wind Chill: 80°   Ceiling: Unl
Heat Index: 84°   Visibility: 10mi
Dew Point: 71°   Wind: 10mph
Humidity: 74%   Direction: 70°ENE
Pressure: 30.01"   Gusts: NA
Location:  18.3744°N, 65.7168°W
Report Text: TJNR 230953Z AUTO 07009KT 10SM CLR 27/22 A3001 RMK AO2 SLP162 T02670217 $
Loading
Personal Weather Stations






























Interactive Weather Map New forecast layout! Learn more

10-Day Weather Forecast

Advertisements
Track Severe Weather on mobile